createdAt,value
2019-02-24T00:04:06.613Z,16.07
2019-02-24T00:09:08.670Z,16.43
2019-02-24T00:14:10.405Z,19.27
2019-02-24T00:19:12.424Z,16.50
2019-02-24T00:24:14.074Z,19.17
2019-02-24T00:29:15.747Z,26.60
2019-02-24T00:34:17.922Z,26.20
2019-02-24T00:39:19.730Z,20.60
2019-02-24T00:44:21.417Z,15.50
2019-02-24T00:49:23.034Z,15.80
2019-02-24T00:54:24.697Z,22.73
2019-02-24T00:59:26.424Z,19.60
2019-02-24T01:04:28.128Z,25.13
2019-02-24T01:09:29.825Z,20.50
2019-02-24T01:14:31.459Z,18.50
2019-02-24T01:19:33.221Z,16.40
2019-02-24T01:24:35.255Z,20.27
2019-02-24T01:29:39.960Z,18.23
2019-02-24T01:34:41.640Z,18.33
2019-02-24T01:39:43.394Z,18.83
2019-02-24T01:44:45.675Z,19.60
2019-02-24T01:49:47.452Z,18.33
2019-02-24T01:54:49.188Z,21.53
2019-02-24T01:59:51.015Z,22.70
2019-02-24T02:04:52.744Z,16.13
2019-02-24T02:09:54.460Z,20.77
2019-02-24T02:14:56.187Z,17.00
2019-02-24T02:19:57.991Z,25.27
2019-02-24T02:24:59.791Z,20.70
2019-02-24T02:30:02.054Z,31.87
2019-02-24T02:35:05.972Z,25.20
2019-02-24T02:40:08.291Z,17.10
2019-02-24T02:45:10.167Z,19.03
2019-02-24T02:50:12.387Z,19.80
2019-02-24T02:55:14.062Z,26.27
2019-02-24T03:00:33.089Z,22.30
2019-02-24T03:05:34.974Z,19.07
2019-02-24T03:10:36.633Z,18.43
2019-02-24T03:15:38.323Z,20.70
2019-02-24T03:20:40.335Z,19.60
2019-02-24T03:25:41.975Z,21.17
2019-02-24T03:30:43.798Z,18.63
2019-02-24T03:35:45.983Z,28.43
2019-02-24T03:40:48.346Z,25.70
2019-02-24T03:45:50.124Z,19.23
2019-02-24T03:50:51.807Z,18.37
2019-02-24T03:55:53.808Z,28.80
2019-02-24T04:00:55.719Z,18.57
2019-02-24T04:05:57.411Z,23.80
2019-02-24T04:10:59.059Z,19.23
2019-02-24T04:16:00.911Z,19.90
2019-02-24T04:21:02.598Z,22.93
2019-02-24T04:26:04.305Z,14.57
2019-02-24T04:31:06.159Z,19.27
2019-02-24T04:36:07.835Z,17.50
2019-02-24T04:41:09.835Z,17.53
2019-02-24T04:46:11.592Z,20.97
2019-02-24T04:51:13.391Z,20.33
2019-02-24T04:56:15.733Z,26.10
2019-02-24T05:01:17.533Z,25.20
2019-02-24T05:06:19.644Z,16.87
2019-02-24T05:11:21.772Z,21.43
2019-02-24T05:16:23.497Z,18.03
2019-02-24T05:21:25.662Z,20.43
2019-02-24T05:26:27.978Z,17.83
2019-02-24T05:31:29.781Z,19.20
2019-02-24T05:36:31.586Z,20.23
2019-02-24T05:41:33.460Z,25.17
2019-02-24T05:46:35.127Z,23.67
2019-02-24T05:51:37.211Z,19.23
2019-02-24T05:56:38.903Z,25.97
2019-02-24T06:01:40.581Z,19.90
2019-02-24T06:06:42.252Z,20.17
2019-02-24T06:11:43.927Z,21.40
2019-02-24T06:16:45.894Z,21.50
2019-02-24T06:21:47.609Z,19.63
2019-02-24T06:26:49.346Z,43.27
2019-02-24T06:31:51.046Z,19.10
2019-02-24T06:36:53.234Z,22.73
2019-02-24T06:41:55.009Z,20.27
2019-02-24T06:46:58.313Z,25.03
2019-02-24T06:52:00.147Z,24.37
2019-02-24T06:57:01.850Z,18.27
2019-02-24T07:02:04.469Z,23.50
2019-02-24T07:07:06.204Z,40.80
2019-02-24T07:12:07.875Z,27.13
2019-02-24T07:17:10.132Z,22.67
2019-02-24T07:22:11.803Z,36.10
2019-02-24T07:27:13.517Z,27.37
2019-02-24T07:32:15.196Z,38.37
2019-02-24T07:37:16.816Z,40.07
2019-02-24T07:42:18.564Z,34.37
2019-02-24T07:47:20.256Z,29.67
2019-02-24T07:52:21.954Z,29.57
2019-02-24T07:57:23.660Z,28.67
2019-02-24T08:02:25.343Z,26.43
2019-02-24T08:07:27.040Z,25.27
2019-02-24T08:12:28.704Z,32.17
2019-02-24T08:17:30.370Z,25.63
2019-02-24T08:22:32.125Z,25.40
2019-02-24T08:27:33.828Z,28.60
2019-02-24T08:32:36.020Z,25.23
2019-02-24T08:37:37.924Z,38.10
2019-02-24T08:42:40.342Z,40.93
2019-02-24T08:47:42.043Z,38.80
2019-02-24T08:52:44.052Z,45.30
2019-02-24T08:57:45.699Z,45.90
2019-02-24T09:02:47.450Z,38.53
2019-02-24T09:07:49.456Z,41.77
2019-02-24T09:12:51.586Z,34.57
2019-02-24T09:17:53.678Z,44.63
2019-02-24T09:22:55.368Z,39.20
2019-02-24T09:27:57.016Z,36.27
2019-02-24T09:32:59.072Z,47.37
2019-02-24T09:38:01.500Z,37.27
2019-02-24T09:43:03.424Z,39.23
2019-02-24T09:48:05.102Z,36.50
2019-02-24T09:53:06.791Z,28.73
2019-02-24T09:58:08.479Z,36.00
2019-02-24T10:03:10.279Z,36.60
2019-02-24T10:08:11.885Z,28.07
2019-02-24T10:13:13.979Z,30.57
2019-02-24T10:18:16.183Z,34.00
2019-02-24T10:23:17.769Z,39.90
2019-02-24T10:28:19.771Z,42.97
2019-02-24T10:33:21.901Z,36.07
2019-02-24T10:38:23.675Z,35.57
2019-02-24T10:43:26.246Z,45.17
2019-02-24T10:48:28.555Z,42.73
2019-02-24T10:53:34.539Z,44.80
2019-02-24T10:58:39.433Z,47.77
2019-02-24T11:03:41.235Z,50.83
2019-02-24T11:08:43.229Z,53.70
2019-02-24T11:13:47.807Z,47.57
2019-02-24T11:18:49.552Z,55.93
2019-02-24T11:23:51.229Z,54.57
2019-02-24T11:28:53.597Z,45.53
2019-02-24T11:33:55.898Z,46.40
2019-02-24T11:38:58.043Z,54.83
2019-02-24T11:44:01.637Z,52.47
2019-02-24T11:49:06.332Z,56.30
2019-02-24T11:54:10.205Z,49.60
2019-02-24T11:59:16.666Z,60.07
2019-02-24T12:04:22.146Z,59.00
2019-02-24T12:09:24.278Z,60.93
2019-02-24T12:14:29.551Z,54.53
2019-02-24T12:19:38.266Z,51.07
2019-02-24T12:24:43.821Z,55.73
2019-02-24T12:29:47.744Z,51.17
2019-02-24T12:34:52.424Z,53.40
2019-02-24T12:39:54.415Z,57.60
2019-02-24T12:44:56.407Z,50.13
2019-02-24T12:50:03.113Z,57.80
2019-02-24T12:55:03.190Z,57.00
2019-02-24T13:00:21.075Z,52.10
2019-02-24T13:05:23.605Z,51.10
2019-02-24T13:10:25.288Z,50.23
2019-02-24T13:15:36.477Z,53.80
2019-02-24T13:20:38.470Z,54.37
2019-02-24T13:25:40.172Z,50.83
2019-02-24T13:30:45.000Z,55.60
2019-02-24T13:35:46.690Z,51.47
2019-02-24T13:40:49.092Z,49.67
2019-02-24T13:45:51.080Z,59.47
2019-02-24T13:50:52.856Z,64.97
2019-02-24T13:55:54.469Z,53.83
2019-02-24T14:00:56.203Z,50.03
2019-02-24T14:05:58.011Z,53.60
2019-02-24T14:11:08.172Z,50.20
2019-02-24T14:16:11.743Z,52.87
2019-02-24T14:21:17.922Z,51.57
2019-02-24T14:26:20.457Z,52.13
2019-02-24T14:31:22.631Z,56.13
2019-02-24T14:36:28.005Z,58.73
2019-02-24T14:41:32.139Z,56.80
2019-02-24T14:46:41.330Z,59.23
2019-02-24T14:51:43.185Z,51.00
2019-02-24T14:56:46.136Z,61.53
2019-02-24T15:01:52.957Z,54.97
2019-02-24T15:06:58.578Z,50.13
2019-02-24T15:12:03.482Z,55.03
2019-02-24T15:17:05.445Z,56.13
2019-02-24T15:22:07.708Z,56.10
2019-02-24T15:27:09.515Z,52.87
2019-02-24T15:32:11.676Z,61.03
2019-02-24T15:37:13.788Z,57.87
2019-02-24T15:42:16.337Z,65.87
2019-02-24T15:47:18.153Z,60.60
2019-02-24T15:52:19.851Z,59.53
2019-02-24T15:57:21.954Z,57.17
2019-02-24T16:02:23.737Z,76.20
2019-02-24T16:07:26.847Z,69.20
2019-02-24T16:12:28.628Z,67.80
2019-02-24T16:17:30.375Z,67.70
2019-02-24T16:22:32.458Z,59.90
2019-02-24T16:27:36.011Z,63.97
2019-02-24T16:32:48.878Z,69.90
2019-02-24T16:37:52.031Z,62.07
2019-02-24T16:42:58.465Z,74.50
2019-02-24T16:48:01.623Z,72.27
2019-02-24T16:53:05.830Z,69.10
2019-02-24T16:58:07.537Z,68.20
2019-02-24T17:03:10.020Z,72.53
2019-02-24T17:08:12.083Z,73.30
2019-02-24T17:13:13.885Z,77.93
2019-02-24T17:18:16.187Z,73.80
2019-02-24T17:23:18.343Z,75.50
2019-02-24T17:28:20.166Z,82.33
2019-02-24T17:33:29.661Z,72.80
2019-02-24T17:38:28.271Z,75.63
2019-02-24T17:43:30.354Z,77.93
2019-02-24T17:48:32.435Z,85.80
2019-02-24T17:53:34.743Z,80.33
2019-02-24T17:58:37.054Z,82.57
2019-02-24T18:03:39.992Z,49.60
2019-02-24T18:08:42.762Z,31.73
2019-02-24T18:13:45.503Z,80.73
2019-02-24T18:18:47.835Z,76.87
2019-02-24T18:23:50.009Z,74.70
2019-02-24T18:28:52.660Z,80.90
2019-02-24T18:33:54.924Z,88.53
2019-02-24T18:38:57.488Z,52.77
2019-02-24T18:49:09.081Z,72.87
2019-02-24T18:54:12.795Z,48.77
2019-02-24T18:59:15.835Z,83.13
2019-02-24T19:04:20.250Z,72.43
2019-02-24T19:09:23.529Z,63.97
2019-02-24T19:14:26.173Z,66.10
2019-02-24T19:19:29.501Z,99.43
2019-02-24T19:24:31.755Z,75.63
2019-02-24T19:29:34.129Z,89.03
2019-02-24T19:34:36.318Z,47.40
2019-02-24T19:39:39.776Z,38.30
2019-02-24T19:44:42.143Z,60.83
2019-02-24T19:49:44.343Z,76.50
2019-02-24T19:54:46.560Z,60.63
2019-02-24T19:59:48.539Z,49.27
2019-02-24T20:04:51.660Z,46.57
2019-02-24T20:09:53.808Z,91.07
2019-02-24T20:14:55.867Z,77.03
2019-02-24T20:19:57.784Z,86.07
2019-02-24T20:24:59.536Z,75.70
2019-02-24T20:35:06.542Z,82.83
2019-02-24T20:40:10.046Z,94.77
2019-02-24T20:45:14.533Z,58.63
2019-02-24T20:50:25.928Z,82.20
2019-02-24T20:55:27.754Z,51.43
2019-02-24T21:00:35.921Z,56.90
2019-02-24T21:05:37.591Z,46.70
2019-02-24T21:10:39.332Z,39.77
2019-02-24T21:15:40.954Z,41.40
2019-02-24T21:20:42.596Z,79.60
2019-02-24T21:25:44.361Z,65.23
2019-02-24T21:30:46.063Z,64.57
2019-02-24T21:35:50.120Z,50.17
2019-02-24T21:40:51.815Z,72.10
2019-02-24T21:45:53.515Z,55.80
2019-02-24T21:50:55.219Z,90.90
2019-02-24T21:55:57.259Z,57.37
2019-02-24T22:00:58.926Z,67.33
2019-02-24T22:06:00.590Z,109.17
2019-02-24T22:11:02.337Z,90.47
2019-02-24T22:16:04.288Z,67.07
2019-02-24T22:21:05.921Z,52.33
2019-02-24T22:26:07.564Z,40.50
2019-02-24T22:31:09.411Z,54.43
2019-02-24T22:36:11.522Z,35.97
2019-02-24T22:41:13.289Z,38.63
2019-02-24T22:46:15.130Z,43.50
2019-02-24T22:51:16.996Z,50.60
2019-02-24T22:56:18.663Z,31.80
2019-02-24T23:01:22.461Z,44.53
2019-02-24T23:06:24.221Z,91.37
2019-02-24T23:11:25.908Z,62.67
2019-02-24T23:16:28.116Z,89.57
2019-02-24T23:21:29.715Z,80.53
2019-02-24T23:26:31.408Z,63.43
2019-02-24T23:31:33.512Z,50.47
2019-02-24T23:36:35.317Z,65.03
2019-02-24T23:41:37.532Z,66.80
2019-02-24T23:46:39.733Z,68.50
2019-02-24T23:51:42.355Z,63.23
2019-02-24T23:56:44.065Z,67.80
